createdAt,value
2022-10-05T00:03:36.240Z,14.04
2022-10-05T00:08:33.492Z,14.09
2022-10-05T00:13:31.344Z,14.15
2022-10-05T00:18:27.832Z,14.18
2022-10-05T00:23:26.161Z,14.22
2022-10-05T00:28:26.409Z,14.25
2022-10-05T00:33:25.384Z,14.23
2022-10-05T00:38:23.589Z,14.21
2022-10-05T00:43:35.333Z,14.22
2022-10-05T00:48:38.518Z,14.03
2022-10-05T00:53:42.884Z,13.75
2022-10-05T00:58:48.783Z,13.83
2022-10-05T01:03:56.979Z,13.64
2022-10-05T01:08:59.293Z,13.79
2022-10-05T01:14:02.361Z,13.70
2022-10-05T01:19:06.271Z,13.61
2022-10-05T01:24:26.804Z,13.40
2022-10-05T01:29:26.319Z,13.47
2022-10-05T01:34:31.023Z,13.33
2022-10-05T01:39:32.018Z,13.29
2022-10-05T01:44:31.028Z,13.24
2022-10-05T01:49:33.672Z,13.23
2022-10-05T01:54:37.367Z,13.49
2022-10-05T01:59:40.384Z,13.50
2022-10-05T02:09:58.580Z,13.53
2022-10-05T02:14:58.070Z,13.40
2022-10-05T02:19:58.538Z,13.39
2022-10-05T02:24:57.334Z,13.42
2022-10-05T02:29:59.431Z,13.36
2022-10-05T02:35:01.989Z,12.84
2022-10-05T02:40:04.900Z,12.98
2022-10-05T02:45:08.561Z,12.78
2022-10-05T02:50:11.854Z,12.79
2022-10-05T02:55:13.088Z,12.69
2022-10-05T03:00:13.667Z,12.90
2022-10-05T03:05:17.092Z,12.77
2022-10-05T03:10:21.005Z,12.72
2022-10-05T03:15:31.647Z,12.75
2022-10-05T03:20:34.230Z,13.09
2022-10-05T03:25:36.165Z,13.11
2022-10-05T03:30:37.635Z,12.83
2022-10-05T03:35:42.846Z,12.76
2022-10-05T03:40:42.018Z,12.83
2022-10-05T03:45:42.524Z,12.70
2022-10-05T03:50:44.365Z,12.83
2022-10-05T03:55:50.366Z,12.67
2022-10-05T04:00:51.696Z,12.66
2022-10-05T04:05:50.245Z,12.79
2022-10-05T04:10:52.230Z,12.83
2022-10-05T04:15:56.054Z,13.26
2022-10-05T04:20:56.130Z,13.16
2022-10-05T04:25:56.374Z,12.98
2022-10-05T04:30:53.751Z,12.86
2022-10-05T04:36:04.718Z,13.04
2022-10-05T04:41:10.759Z,13.04
2022-10-05T04:46:14.979Z,12.96
2022-10-05T04:51:19.616Z,12.90
2022-10-05T04:56:21.261Z,12.96
2022-10-05T05:01:26.555Z,12.88
2022-10-05T05:06:30.233Z,12.69
2022-10-05T05:11:38.576Z,12.86
2022-10-05T05:16:37.794Z,12.41
2022-10-05T05:21:42.447Z,12.22
2022-10-05T05:26:46.775Z,12.18
2022-10-05T05:31:46.117Z,12.49
2022-10-05T05:36:56.247Z,12.17
2022-10-05T05:41:59.665Z,12.67
2022-10-05T05:47:05.109Z,12.88
2022-10-05T05:52:13.348Z,12.97
2022-10-05T05:57:16.468Z,13.01
2022-10-05T06:02:19.234Z,13.37
2022-10-05T06:07:30.566Z,13.20
2022-10-05T06:12:31.814Z,13.35
2022-10-05T06:17:32.754Z,13.28
2022-10-05T06:22:39.940Z,13.13
2022-10-05T06:27:38.755Z,13.14
2022-10-05T06:32:46.365Z,13.25
2022-10-05T06:37:54.801Z,13.56
2022-10-05T06:43:01.340Z,14.07
2022-10-05T06:48:15.027Z,13.96
2022-10-05T06:54:05.309Z,13.93
2022-10-05T06:59:52.883Z,14.04
2022-10-05T07:05:26.011Z,14.00
2022-10-05T07:10:52.372Z,14.11
2022-10-05T07:16:37.395Z,14.02
2022-10-05T07:22:04.514Z,13.94
2022-10-05T07:33:24.952Z,14.10
2022-10-05T07:44:56.930Z,14.62
2022-10-05T07:50:20.384Z,14.82
2022-10-05T07:55:28.916Z,14.78
2022-10-05T08:00:41.961Z,15.19
2022-10-05T08:05:46.395Z,15.40
2022-10-05T08:16:46.961Z,16.14
2022-10-05T08:22:13.643Z,16.24
2022-10-05T08:27:30.138Z,16.54
2022-10-05T08:33:05.705Z,16.53
2022-10-05T08:38:09.797Z,16.89
2022-10-05T08:43:42.746Z,17.22
2022-10-05T08:49:13.835Z,17.46
2022-10-05T08:54:56.341Z,17.39
2022-10-05T09:00:36.301Z,17.48
2022-10-05T09:06:25.184Z,17.66
2022-10-05T09:11:34.610Z,17.87
2022-10-05T09:16:47.182Z,18.08
2022-10-05T09:21:56.785Z,18.18
2022-10-05T09:27:07.602Z,18.35
2022-10-05T09:32:20.016Z,18.40
2022-10-05T09:37:37.959Z,18.51
2022-10-05T09:42:54.925Z,18.58
2022-10-05T09:48:06.475Z,18.64
2022-10-05T09:53:06.024Z,18.75
2022-10-05T09:58:38.102Z,18.86
2022-10-05T10:03:53.265Z,18.99
2022-10-05T10:09:01.388Z,19.03
2022-10-05T10:14:12.959Z,19.06
2022-10-05T10:19:23.460Z,19.13
2022-10-05T10:24:31.610Z,19.21
2022-10-05T10:29:46.810Z,19.27
2022-10-05T10:34:57.475Z,19.36
2022-10-05T10:40:08.201Z,19.40
2022-10-05T10:45:30.239Z,19.42
2022-10-05T10:50:44.503Z,19.49
2022-10-05T10:55:49.437Z,19.59
2022-10-05T11:00:50.235Z,19.70
2022-10-05T11:06:17.179Z,19.74
2022-10-05T11:11:27.135Z,19.79
2022-10-05T11:16:41.635Z,19.80
2022-10-05T11:21:45.009Z,19.84
2022-10-05T11:26:58.145Z,19.85
2022-10-05T11:32:09.796Z,19.92
2022-10-05T11:37:21.391Z,19.92
2022-10-05T11:42:32.387Z,19.97
2022-10-05T11:47:37.877Z,19.93
2022-10-05T11:52:40.295Z,20.01
2022-10-05T11:57:41.722Z,20.05
2022-10-05T12:03:06.282Z,20.00
2022-10-05T12:08:11.326Z,20.06
2022-10-05T12:13:20.895Z,20.11
2022-10-05T12:18:25.649Z,20.13
2022-10-05T12:23:25.875Z,20.21
2022-10-05T12:28:29.416Z,20.23
2022-10-05T12:33:30.608Z,20.24
2022-10-05T12:38:33.969Z,20.29
2022-10-05T12:43:38.383Z,20.28
2022-10-05T12:48:45.000Z,20.13
2022-10-05T12:53:49.321Z,20.31
2022-10-05T12:58:52.735Z,20.37
2022-10-05T13:03:52.665Z,20.40
2022-10-05T13:08:55.292Z,20.38
2022-10-05T13:14:02.050Z,20.40
2022-10-05T13:19:16.701Z,20.43
2022-10-05T13:24:20.271Z,20.42
2022-10-05T13:29:22.252Z,20.45
2022-10-05T13:34:24.043Z,20.42
2022-10-05T13:39:30.506Z,20.35
2022-10-05T13:44:33.611Z,20.46
2022-10-05T13:49:37.267Z,20.53
2022-10-05T13:54:37.693Z,20.54
2022-10-05T13:59:43.814Z,20.52
2022-10-05T14:04:44.629Z,20.52
2022-10-05T14:09:47.657Z,20.51
2022-10-05T14:14:46.930Z,20.37
2022-10-05T14:19:45.108Z,20.38
2022-10-05T14:24:48.110Z,20.38
2022-10-05T14:29:52.403Z,20.39
2022-10-05T14:35:00.592Z,20.12
2022-10-05T14:39:59.866Z,20.05
2022-10-05T14:44:58.878Z,19.98
2022-10-05T14:50:15.531Z,19.65
2022-10-05T14:55:17.709Z,19.72
2022-10-05T15:00:16.108Z,19.85
2022-10-05T15:05:16.260Z,19.96
2022-10-05T15:10:28.996Z,19.95
2022-10-05T15:15:28.300Z,19.88
2022-10-05T15:20:30.720Z,19.82
2022-10-05T15:25:32.348Z,19.82
2022-10-05T15:30:30.611Z,19.90
2022-10-05T15:35:42.036Z,19.95
2022-10-05T15:40:41.700Z,19.95
2022-10-05T15:45:43.220Z,19.86
2022-10-05T15:50:57.730Z,19.89
2022-10-05T15:55:56.357Z,19.89
2022-10-05T16:01:02.509Z,19.88
2022-10-05T16:06:24.433Z,20.07
2022-10-05T16:11:30.144Z,20.09
2022-10-05T16:16:31.976Z,20.16
2022-10-05T16:21:31.962Z,20.18
2022-10-05T16:26:38.090Z,20.18
2022-10-05T16:31:43.405Z,20.06
2022-10-05T16:36:47.853Z,19.76
2022-10-05T16:41:49.598Z,19.32
2022-10-05T16:46:50.078Z,19.15
2022-10-05T16:51:54.639Z,18.96
2022-10-05T16:57:03.118Z,18.85
2022-10-05T17:02:06.045Z,18.86
2022-10-05T17:07:17.478Z,19.13
2022-10-05T17:12:22.345Z,19.10
2022-10-05T17:17:29.158Z,19.03
2022-10-05T17:22:28.303Z,18.93
2022-10-05T17:27:33.923Z,18.81
2022-10-05T17:32:33.775Z,18.77
2022-10-05T17:37:35.149Z,18.93
2022-10-05T17:42:48.556Z,19.09
2022-10-05T17:47:58.384Z,19.31
2022-10-05T17:53:27.944Z,19.15
2022-10-05T17:58:44.155Z,18.85
2022-10-05T18:03:42.551Z,18.53
2022-10-05T18:08:40.742Z,18.32
2022-10-05T18:13:41.035Z,18.34
2022-10-05T18:18:56.580Z,18.14
2022-10-05T18:24:04.741Z,17.99
2022-10-05T18:29:13.443Z,18.12
2022-10-05T18:34:21.064Z,18.18
2022-10-05T18:39:34.013Z,18.02
2022-10-05T18:44:34.160Z,18.27
2022-10-05T18:49:48.308Z,18.64
2022-10-05T18:54:54.483Z,18.83
2022-10-05T18:59:55.017Z,18.92
2022-10-05T19:04:59.395Z,18.66
2022-10-05T19:10:03.066Z,18.37
2022-10-05T19:15:06.041Z,17.81
2022-10-05T19:20:16.642Z,17.53
2022-10-05T19:25:25.597Z,17.30
2022-10-05T19:30:23.401Z,17.43
2022-10-05T19:35:25.157Z,17.94
2022-10-05T19:40:29.036Z,17.66
2022-10-05T19:45:26.254Z,17.08
2022-10-05T19:50:27.330Z,17.09
2022-10-05T19:55:25.688Z,16.98
2022-10-05T20:00:24.140Z,17.44
2022-10-05T20:05:20.828Z,17.62
2022-10-05T20:10:23.757Z,17.26
2022-10-05T20:15:45.800Z,17.20
2022-10-05T20:20:45.858Z,17.23
2022-10-05T20:26:06.674Z,16.82
2022-10-05T20:31:06.649Z,16.63
2022-10-05T20:36:04.044Z,16.70
2022-10-05T20:41:00.640Z,16.71
2022-10-05T20:45:58.344Z,16.65
2022-10-05T20:50:55.681Z,16.39
2022-10-05T20:55:52.193Z,16.27
2022-10-05T21:01:06.890Z,16.42
2022-10-05T21:06:04.239Z,16.08
2022-10-05T21:11:00.995Z,16.03
2022-10-05T21:15:57.525Z,16.46
2022-10-05T21:20:56.614Z,16.77
2022-10-05T21:25:58.958Z,16.50
2022-10-05T21:30:55.556Z,16.27
2022-10-05T21:35:54.141Z,16.22
2022-10-05T21:40:50.745Z,15.89
2022-10-05T21:45:48.093Z,15.99
2022-10-05T21:50:48.907Z,15.52
2022-10-05T21:55:49.364Z,15.47
2022-10-05T22:00:48.910Z,15.36
2022-10-05T22:05:49.313Z,15.18
2022-10-05T22:10:45.984Z,15.06
2022-10-05T22:15:43.153Z,14.98
2022-10-05T22:20:39.650Z,14.90
2022-10-05T22:25:37.038Z,15.05
2022-10-05T22:30:33.585Z,14.71
2022-10-05T22:35:31.314Z,14.88
2022-10-05T22:40:27.810Z,15.00
2022-10-05T22:45:29.155Z,14.92
2022-10-05T22:50:28.334Z,14.76
2022-10-05T22:55:24.846Z,14.51
2022-10-05T23:00:35.150Z,14.55
2022-10-05T23:05:41.502Z,14.35
2022-10-05T23:10:41.115Z,14.02
2022-10-05T23:15:39.773Z,14.17
2022-10-05T23:20:36.444Z,13.86
2022-10-05T23:25:36.094Z,13.85
2022-10-05T23:30:32.804Z,13.71
2022-10-05T23:35:29.364Z,13.35
2022-10-05T23:40:28.881Z,13.27
2022-10-05T23:45:28.437Z,13.42
2022-10-05T23:50:29.413Z,13.21
2022-10-05T23:55:26.000Z,13.30
